Time;durP1;ratioP1;P1;durP2;ratioP2;P2;SDS_P1;SDS_P2;PMS_P1;PMS_P2;Temp;Humidity;BMP_temperature;BMP_pressure;BME280_temperature;BME280_humidity;BME280_pressure;Samples;Min_cycle;Max_cycle;Signal;HPM_P1;HPM_P2
2021/12/17 00:00:03;;;;;;;25.92;10.50;;;7.30;99.90;;;;;;5057822;28;20028;-69
2021/12/17 00:05:18;;;;;;;29.17;10.82;;;7.30;99.90;;;;;;5058938;28;20116;-69
2021/12/17 00:07:46;;;;;;;30.55;11.65;;;7.20;99.90;;;;;;5057679;28;20111;-69
2021/12/17 00:10:18;;;;;;;25.20;11.32;;;7.20;99.90;;;;;;5074061;28;20029;-69
2021/12/17 00:12:46;;;;;;;27.75;10.05;;;7.20;99.90;;;;;;5058370;28;20031;-69
2021/12/17 00:15:14;;;;;;;34.13;12.15;;;7.20;99.90;;;;;;5058315;28;20068;-69
2021/12/17 00:17:52;;;;;;;38.83;12.00;;;7.10;99.90;;;;;;5057174;28;20331;-69
2021/12/17 00:53:43;;;;;;;31.88;10.80;;;6.70;99.90;;;;;;5016040;28;20072;-69
2021/12/17 00:56:11;;;;;;;28.95;12.45;;;6.60;99.90;;;;;;5048427;28;20097;-69
2021/12/17 00:58:38;;;;;;;24.85;10.07;;;6.50;99.90;;;;;;5057219;28;20386;-69
2021/12/17 01:01:06;;;;;;;25.73;10.20;;;6.50;99.90;;;;;;5057849;28;20032;-69
2021/12/17 01:03:34;;;;;;;24.88;10.73;;;6.40;99.90;;;;;;5057720;28;20025;-69
2021/12/17 01:06:02;;;;;;;27.35;10.95;;;6.30;99.90;;;;;;5057662;28;20017;-69
2021/12/17 01:08:29;;;;;;;30.95;11.18;;;6.20;99.90;;;;;;5056452;28;20452;-69
2021/12/17 01:10:57;;;;;;;41.72;14.13;;;6.10;99.90;;;;;;5055342;28;20032;-69
2021/12/17 01:13:26;;;;;;;37.15;13.57;;;6.00;99.90;;;;;;5055541;28;20425;-69
2021/12/17 01:15:54;;;;;;;37.38;12.02;;;5.90;99.90;;;;;;5055363;28;20025;-69
2021/12/17 01:18:32;;;;;;;37.85;12.55;;;5.80;99.90;;;;;;5071869;28;20021;-69
2021/12/17 01:21:21;;;;;;;38.80;12.25;;;5.70;99.90;;;;;;5056386;28;20418;-69
2021/12/17 01:24:13;;;;;;;36.08;13.30;;;5.60;99.90;;;;;;5056695;28;20443;-69
2021/12/17 01:43:06;;;;;;;31.70;12.82;;;5.20;99.90;;;;;;5057281;28;20032;-69
2021/12/17 01:45:37;;;;;;;35.10;12.13;;;5.20;99.90;;;;;;5057623;28;20079;-69
2021/12/17 01:48:15;;;;;;;40.75;12.75;;;5.10;99.90;;;;;;5056296;28;20017;-69
2021/12/17 02:01:39;;;;;;;38.55;13.15;;;5.00;99.90;;;;;;5055753;28;20020;-69
2021/12/17 02:04:06;;;;;;;40.08;11.82;;;4.90;99.90;;;;;;5056134;28;20111;-69
2021/12/17 02:06:37;;;;;;;34.45;11.10;;;4.90;99.90;;;;;;5055983;28;20013;-69
2021/12/17 02:09:32;;;;;;;28.42;10.23;;;5.00;99.90;;;;;;5056149;28;20325;-69
2021/12/17 02:21:04;;;;;;;29.87;9.90;;;5.00;99.90;;;;;;5056832;28;20028;-69
2021/12/17 02:29:45;;;;;;;28.23;9.90;;;5.10;99.90;;;;;;5057596;28;20064;-69
2021/12/17 02:32:14;;;;;;;31.05;11.25;;;5.10;99.90;;;;;;5058873;28;20056;-69
2021/12/17 02:37:16;;;;;;;29.35;11.85;;;5.20;99.90;;;;;;5059315;28;20056;-69
2021/12/17 02:42:48;;;;;;;33.88;10.98;;;5.30;99.90;;;;;;5059158;28;20025;-69
2021/12/17 02:48:22;;;;;;;27.13;11.95;;;5.30;99.90;;;;;;5017720;28;20034;-69
2021/12/17 02:50:55;;;;;;;35.35;11.65;;;5.40;99.90;;;;;;5052093;28;20071;-69
2021/12/17 02:53:24;;;;;;;29.27;11.43;;;5.40;99.90;;;;;;5058372;28;20041;-69
2021/12/17 02:55:58;;;;;;;29.30;11.63;;;5.50;99.90;;;;;;5059853;28;20017;-69
2021/12/17 02:58:32;;;;;;;35.10;11.93;;;5.50;99.90;;;;;;5059861;28;20100;-69
2021/12/17 03:01:01;;;;;;;36.78;11.13;;;5.50;99.90;;;;;;5059729;28;20039;-68
2021/12/17 03:03:32;;;;;;;33.28;11.13;;;5.60;99.90;;;;;;5059851;28;20096;-69
2021/12/17 03:06:00;;;;;;;26.67;11.27;;;5.60;99.90;;;;;;5060172;28;20025;-69
2021/12/17 03:08:29;;;;;;;32.67;11.63;;;5.60;99.90;;;;;;5058703;28;20380;-69
2021/12/17 03:10:58;;;;;;;26.30;10.40;;;5.60;99.90;;;;;;5059412;28;20039;-69
2021/12/17 03:13:27;;;;;;;37.10;12.02;;;5.60;99.90;;;;;;5059337;28;20057;-68
2021/12/17 03:16:01;;;;;;;29.25;10.38;;;5.60;99.90;;;;;;5058502;28;20045;-69
2021/12/17 03:24:11;;;;;;;28.77;9.83;;;5.70;99.90;;;;;;5058882;28;20032;-69
2021/12/17 03:26:39;;;;;;;30.35;10.15;;;5.80;99.90;;;;;;5058574;28;20342;-69
2021/12/17 03:29:10;;;;;;;29.75;11.57;;;5.70;99.90;;;;;;5073823;28;20060;-69
2021/12/17 03:31:37;;;;;;;35.47;11.38;;;5.80;99.90;;;;;;5074131;28;20025;-68
2021/12/17 03:34:18;;;;;;;28.02;10.70;;;5.80;99.90;;;;;;5058588;28;20021;-69
2021/12/17 03:36:48;;;;;;;27.40;9.98;;;5.80;99.90;;;;;;5059509;28;20117;-69
2021/12/17 03:39:16;;;;;;;29.25;12.15;;;5.90;99.90;;;;;;5059206;28;20420;-69
2021/12/17 03:41:50;;;;;;;29.30;10.05;;;5.90;99.90;;;;;;5058484;28;20032;-68
2021/12/17 03:44:20;;;;;;;30.42;10.98;;;5.90;99.90;;;;;;5058972;28;20451;-69
2021/12/17 03:46:49;;;;;;;29.52;10.68;;;5.90;99.90;;;;;;5058848;28;20051;-69
2021/12/17 03:49:17;;;;;;;31.58;12.35;;;6.00;99.90;;;;;;5058922;28;20025;-68
2021/12/17 03:52:05;;;;;;;32.13;11.50;;;6.00;99.90;;;;;;5059337;28;20024;-68
2021/12/17 03:54:37;;;;;;;25.08;10.73;;;6.00;99.90;;;;;;5058389;28;20455;-68
2021/12/17 03:57:09;;;;;;;28.80;10.73;;;6.00;99.90;;;;;;5057913;28;20412;-69
2021/12/17 03:59:37;;;;;;;33.50;11.15;;;5.90;99.90;;;;;;5058166;28;20412;-69
2021/12/17 04:02:05;;;;;;;30.83;12.02;;;5.90;99.90;;;;;;5057653;28;20021;-69
2021/12/17 04:04:32;;;;;;;30.40;10.73;;;5.90;99.90;;;;;;5057692;28;20028;-69
2021/12/17 04:07:00;;;;;;;37.35;12.82;;;5.90;99.90;;;;;;5057509;28;20333;-69
2021/12/17 04:09:30;;;;;;;34.67;12.27;;;5.90;99.90;;;;;;5057431;28;20021;-69
2021/12/17 04:12:05;;;;;;;36.80;12.48;;;5.90;99.90;;;;;;5057340;28;20028;-69
2021/12/17 04:14:42;;;;;;;60.13;22.75;;;5.90;99.90;;;;;;5057445;28;20067;-69
2021/12/17 04:17:10;;;;;;;60.05;19.38;;;6.00;99.90;;;;;;5057290;28;20021;-69
2021/12/17 04:19:38;;;;;;;44.25;16.80;;;6.00;99.90;;;;;;5058281;28;20029;-68
2021/12/17 04:22:06;;;;;;;42.70;15.55;;;6.00;99.90;;;;;;5073762;28;20086;-69
2021/12/17 04:24:34;;;;;;;48.47;15.75;;;6.00;99.90;;;;;;5058306;28;20321;-69
2021/12/17 04:27:02;;;;;;;42.17;14.73;;;6.10;99.90;;;;;;5058111;28;20021;-68
2021/12/17 04:29:29;;;;;;;37.85;14.60;;;6.10;99.90;;;;;;5058092;28;20075;-69
2021/12/17 04:31:57;;;;;;;47.72;14.00;;;6.10;99.90;;;;;;5057952;28;20490;-68
2021/12/17 04:34:26;;;;;;;41.72;15.15;;;6.20;99.90;;;;;;5057961;28;20033;-69
2021/12/17 04:36:56;;;;;;;52.30;14.98;;;6.20;99.90;;;;;;5073497;28;20107;-69
2021/12/17 04:39:25;;;;;;;47.72;14.05;;;6.20;99.90;;;;;;5057544;28;20035;-69
2021/12/17 04:42:01;;;;;;;48.53;14.18;;;6.30;99.90;;;;;;5057212;28;20029;-69
2021/12/17 04:44:33;;;;;;;48.60;15.82;;;6.30;99.90;;;;;;5057488;28;20021;-69
2021/12/17 04:57:18;;;;;;;43.85;14.05;;;6.30;99.90;;;;;;5057144;28;20021;-69
2021/12/17 04:58:08;;;;;;;41.90;12.90;;;6.40;99.90;;;;;;5017413;28;20441;-69
2021/12/17 05:00:36;;;;;;;31.92;11.95;;;6.50;99.90;;;;;;5017044;28;20655;-69
2021/12/17 05:03:03;;;;;;;42.30;14.05;;;6.40;99.90;;;;;;5017931;28;20026;-69
2021/12/17 05:05:33;;;;;;;36.22;14.38;;;6.40;99.90;;;;;;5016775;28;20026;-69
2021/12/17 05:08:05;;;;;;;44.85;14.18;;;6.40;99.90;;;;;;5017723;28;20113;-69
2021/12/17 05:11:13;;;;;;;44.30;14.70;;;6.40;99.90;;;;;;5017752;28;20030;-69
2021/12/17 05:19:25;;;;;;;46.80;15.00;;;6.40;99.90;;;;;;5018147;28;20449;-68
2021/12/17 05:21:53;;;;;;;45.10;14.30;;;6.50;99.90;;;;;;5017457;28;20018;-68
2021/12/17 05:24:21;;;;;;;43.60;13.35;;;6.50;99.90;;;;;;5016672;28;20022;-69
2021/12/17 05:26:49;;;;;;;43.45;14.27;;;6.50;99.90;;;;;;5016697;28;20436;-69
2021/12/17 05:29:16;;;;;;;42.95;14.20;;;6.60;99.90;;;;;;5017057;28;20080;-69
2021/12/17 05:31:44;;;;;;;38.50;12.70;;;6.60;99.90;;;;;;5016667;28;20026;-68
2021/12/17 05:34:12;;;;;;;37.15;12.70;;;6.60;99.90;;;;;;5015995;28;20060;-69
2021/12/17 05:36:39;;;;;;;41.42;12.98;;;6.60;99.90;;;;;;5017117;28;20022;-69
2021/12/17 05:39:07;;;;;;;38.08;13.45;;;6.60;99.90;;;;;;5031944;28;20026;-68
2021/12/17 05:41:34;;;;;;;39.65;14.23;;;6.60;99.90;;;;;;5016546;28;20104;-69
2021/12/17 05:44:02;;;;;;;45.28;13.63;;;6.60;99.90;;;;;;5016799;28;20446;-68
2021/12/17 05:49:27;;;;;;;39.85;14.18;;;6.60;99.90;;;;;;5017039;28;20041;-68
2021/12/17 05:51:55;;;;;;;45.75;14.35;;;6.70;99.90;;;;;;5032814;28;20033;-69
2021/12/17 05:54:23;;;;;;;41.70;14.82;;;6.60;99.90;;;;;;5045821;28;20120;-69
2021/12/17 05:56:52;;;;;;;40.75;12.77;;;6.60;99.90;;;;;;5072568;28;20017;-69
2021/12/17 05:59:20;;;;;;;44.75;14.25;;;6.70;99.90;;;;;;5056966;28;20028;-69
2021/12/17 06:01:47;;;;;;;43.75;14.10;;;6.70;99.90;;;;;;5056949;28;20020;-69
2021/12/17 06:04:16;;;;;;;34.45;11.98;;;6.70;99.90;;;;;;5057286;28;20021;-69
2021/12/17 06:06:49;;;;;;;40.80;14.45;;;6.70;99.90;;;;;;5060151;28;20032;-69
2021/12/17 06:09:17;;;;;;;49.70;14.13;;;6.70;99.90;;;;;;5059585;28;20090;-69
2021/12/17 06:11:45;;;;;;;42.42;14.43;;;6.70;99.90;;;;;;5059731;28;20066;-69
2021/12/17 06:14:13;;;;;;;35.97;12.48;;;6.70;99.90;;;;;;5059851;28;20032;-69
2021/12/17 06:16:41;;;;;;;35.05;12.77;;;6.70;99.90;;;;;;5059637;28;20048;-69
2021/12/17 06:19:09;;;;;;;35.97;13.55;;;6.70;99.90;;;;;;5075149;28;20033;-69
2021/12/17 06:21:37;;;;;;;38.22;12.88;;;6.80;99.90;;;;;;5060071;28;20085;-69
2021/12/17 06:24:06;;;;;;;33.75;11.85;;;6.80;99.90;;;;;;5059473;28;20029;-69
2021/12/17 06:26:33;;;;;;;37.97;13.40;;;6.80;99.90;;;;;;5059641;28;20021;-69
2021/12/17 06:29:01;;;;;;;33.78;12.68;;;6.80;99.90;;;;;;5060430;28;20409;-68
2021/12/17 06:31:29;;;;;;;38.83;12.48;;;6.90;99.90;;;;;;5061054;28;20100;-69
2021/12/17 06:33:57;;;;;;;35.53;11.95;;;6.90;99.90;;;;;;5060287;28;20435;-69
2021/12/17 06:36:24;;;;;;;41.90;12.43;;;6.90;99.90;;;;;;5060285;28;20131;-69
2021/12/17 06:38:52;;;;;;;29.42;10.77;;;6.90;99.90;;;;;;5060343;28;20361;-69
2021/12/17 06:41:20;;;;;;;29.98;10.57;;;6.90;99.90;;;;;;5075598;28;20025;-69
2021/12/17 06:43:48;;;;;;;35.47;11.30;;;6.90;99.90;;;;;;5075716;28;20052;-70
2021/12/17 06:48:47;;;;;;;30.83;9.88;;;6.90;99.90;;;;;;5059268;28;20025;-69
2021/12/17 06:57:52;;;;;;;14.48;4.82;;;7.00;99.90;;;;;;5059294;28;20052;-72
2021/12/17 07:10:38;;;;;;;10.75;4.72;;;7.20;99.90;;;;;;5059122;28;20060;-72
2021/12/17 07:21:31;;;;;;;12.40;4.70;;;7.20;99.90;;;;;;5058745;28;20063;-72
2021/12/17 07:35:02;;;;;;;15.90;6.03;;;7.20;99.90;;;;;;5058584;28;20032;-68
2021/12/17 07:39:53;;;;;;;11.77;4.47;;;7.20;99.90;;;;;;5058418;28;20420;-68
2021/12/17 07:42:21;;;;;;;9.27;3.70;;;7.20;99.90;;;;;;5058093;28;20033;-68
2021/12/17 07:44:49;;;;;;;10.77;4.68;;;7.20;99.90;;;;;;5058097;28;20067;-69
2021/12/17 07:47:17;;;;;;;12.63;5.10;;;7.20;99.90;;;;;;5058425;28;20059;-69
2021/12/17 07:49:45;;;;;;;10.13;4.55;;;7.20;99.90;;;;;;5058111;28;20352;-69
2021/12/17 07:52:12;;;;;;;8.63;3.75;;;7.20;99.90;;;;;;5057313;28;20431;-69
2021/12/17 07:54:40;;;;;;;12.32;4.50;;;7.20;99.90;;;;;;5058716;28;20060;-69
2021/12/17 07:57:09;;;;;;;10.13;3.28;;;7.30;99.90;;;;;;5059039;28;20066;-76
2021/12/17 07:59:37;;;;;;;7.13;3.33;;;7.20;99.90;;;;;;5058657;28;20111;-68
2021/12/17 08:02:04;;;;;;;10.93;3.45;;;7.20;99.90;;;;;;5041008;28;20025;-71
2021/12/17 08:04:31;;;;;;;11.77;4.00;;;7.20;99.90;;;;;;5057554;28;20025;-68
2021/12/17 08:06:59;;;;;;;8.13;3.72;;;7.20;99.90;;;;;;5058530;28;20033;-68
2021/12/17 08:09:28;;;;;;;7.53;3.08;;;7.20;99.90;;;;;;5058513;28;20137;-69
2021/12/17 08:11:57;;;;;;;13.85;4.95;;;7.30;99.90;;;;;;5057871;28;20027;-69
2021/12/17 08:14:28;;;;;;;6.95;3.25;;;7.20;99.90;;;;;;5057671;28;20417;-68
2021/12/17 08:17:15;;;;;;;9.23;3.85;;;7.20;99.90;;;;;;5056405;28;20027;-69
2021/12/17 08:30:40;;;;;;;8.30;3.13;;;7.20;99.90;;;;;;5023247;28;20314;-69
2021/12/17 08:33:09;;;;;;;7.53;2.92;;;7.30;99.90;;;;;;5057580;28;20473;-70
2021/12/17 08:35:38;;;;;;;7.47;2.83;;;7.20;99.90;;;;;;5057966;28;20044;-69
2021/12/17 08:38:08;;;;;;;7.30;3.15;;;7.20;99.90;;;;;;5057917;28;20025;-69
2021/12/17 08:40:36;;;;;;;7.82;3.03;;;7.30;99.90;;;;;;5057910;28;20025;-69
2021/12/17 08:43:04;;;;;;;6.20;2.60;;;7.30;99.90;;;;;;5058031;28;20024;-72
2021/12/17 08:45:32;;;;;;;6.28;3.03;;;7.30;99.90;;;;;;5057939;28;20056;-71
2021/12/17 08:48:00;;;;;;;6.45;2.88;;;7.30;99.90;;;;;;5058112;28;20298;-72
2021/12/17 08:50:28;;;;;;;4.72;2.63;;;7.30;99.90;;;;;;5057706;28;20032;-71
2021/12/17 08:52:55;;;;;;;5.88;2.95;;;7.40;99.90;;;;;;5057005;28;20021;-72
2021/12/17 08:55:23;;;;;;;9.20;2.30;;;7.30;99.90;;;;;;5057188;28;20134;-71
2021/12/17 08:57:51;;;;;;;5.97;2.60;;;7.40;99.90;;;;;;5056789;28;20025;-72
2021/12/17 09:00:19;;;;;;;7.25;2.78;;;7.40;99.90;;;;;;5056776;28;20027;-72
2021/12/17 09:02:47;;;;;;;6.93;2.90;;;7.40;99.90;;;;;;5056633;28;20150;-72
2021/12/17 09:05:17;;;;;;;5.28;2.78;;;7.40;99.90;;;;;;5056768;28;20112;-71
2021/12/17 09:07:45;;;;;;;6.05;2.72;;;7.50;99.90;;;;;;5056637;28;20021;-72
2021/12/17 09:10:19;;;;;;;8.02;2.55;;;7.40;99.90;;;;;;5055364;28;20078;-72
2021/12/17 09:12:48;;;;;;;8.55;2.97;;;7.50;99.90;;;;;;5056396;28;20025;-69
2021/12/17 09:15:15;;;;;;;7.18;3.05;;;7.50;99.90;;;;;;5057180;28;20135;-68
2021/12/17 09:17:43;;;;;;;5.45;2.50;;;7.50;99.90;;;;;;5057388;28;20021;-68
2021/12/17 09:20:11;;;;;;;5.50;2.90;;;7.50;99.90;;;;;;5057496;28;20032;-69
2021/12/17 09:22:40;;;;;;;7.60;3.63;;;7.50;99.90;;;;;;5057410;28;20085;-69
2021/12/17 09:25:09;;;;;;;6.53;2.97;;;7.60;99.90;;;;;;5057470;28;20028;-70
2021/12/17 09:27:36;;;;;;;5.70;2.70;;;7.60;99.90;;;;;;5057144;28;20048;-69
2021/12/17 09:30:06;;;;;;;7.70;3.50;;;7.60;99.90;;;;;;5057128;28;20033;-68
2021/12/17 09:32:35;;;;;;;5.70;2.80;;;7.60;99.90;;;;;;5056037;28;20017;-69
2021/12/17 09:35:03;;;;;;;9.35;3.22;;;7.60;99.90;;;;;;5057147;28;20071;-69
2021/12/17 09:37:30;;;;;;;7.53;3.67;;;7.60;99.90;;;;;;5055093;28;20028;-68
2021/12/17 09:39:58;;;;;;;9.00;3.45;;;7.60;99.90;;;;;;5059666;28;20021;-68
2021/12/17 09:42:27;;;;;;;7.25;3.35;;;7.60;99.90;;;;;;5060285;28;20021;-69
2021/12/17 09:44:55;;;;;;;7.25;3.33;;;7.60;99.90;;;;;;5060426;28;20037;-68
2021/12/17 09:47:22;;;;;;;7.28;3.42;;;7.60;99.90;;;;;;5059169;28;20341;-68
2021/12/17 09:49:58;;;;;;;8.68;3.42;;;7.60;99.90;;;;;;5059112;28;20017;-68
2021/12/17 09:52:26;;;;;;;7.22;3.67;;;7.60;99.90;;;;;;5060139;28;20029;-68
2021/12/17 09:54:57;;;;;;;10.90;5.05;;;7.60;99.90;;;;;;5058764;28;20040;-69
2021/12/17 09:57:26;;;;;;;9.45;4.40;;;7.60;99.90;;;;;;5060359;28;20021;-68
2021/12/17 09:59:54;;;;;;;8.52;4.80;;;7.50;99.90;;;;;;5061232;28;20379;-68
2021/12/17 10:02:22;;;;;;;9.35;4.60;;;7.50;99.90;;;;;;5061031;28;20028;-68
2021/12/17 10:04:55;;;;;;;10.98;4.55;;;7.40;99.90;;;;;;5060834;28;20051;-68
2021/12/17 10:07:28;;;;;;;9.45;4.35;;;7.50;99.90;;;;;;5060867;28;20031;-69
2021/12/17 10:10:04;;;;;;;9.40;4.72;;;7.40;99.90;;;;;;5060616;28;20321;-69
2021/12/17 10:12:35;;;;;;;9.05;5.10;;;7.40;99.90;;;;;;5060745;28;20052;-69
2021/12/17 10:15:15;;;;;;;7.47;3.45;;;7.40;99.90;;;;;;5060684;28;20055;-68
2021/12/17 10:18:03;;;;;;;6.63;3.65;;;7.40;99.90;;;;;;5059892;28;20025;-69
2021/12/17 10:20:34;;;;;;;7.18;3.45;;;7.40;99.90;;;;;;5059755;28;20325;-69
2021/12/17 10:23:08;;;;;;;4.72;2.60;;;7.30;99.90;;;;;;5058451;28;20025;-68
2021/12/17 10:25:41;;;;;;;5.18;2.50;;;7.40;99.90;;;;;;5059891;28;20090;-69
2021/12/17 10:28:10;;;;;;;5.97;3.13;;;7.30;99.90;;;;;;5059471;28;20029;-69
2021/12/17 10:30:40;;;;;;;6.35;2.97;;;7.30;99.90;;;;;;5060048;28;20049;-68
2021/12/17 10:33:13;;;;;;;7.45;2.72;;;7.40;99.90;;;;;;5059351;28;20298;-69
2021/12/17 10:35:45;;;;;;;6.25;3.03;;;7.40;99.90;;;;;;5059344;28;20021;-72
2021/12/17 10:38:16;;;;;;;4.28;1.73;;;7.50;99.90;;;;;;5059541;28;20047;-69
2021/12/17 10:40:53;;;;;;;1.70;1.10;;;7.50;99.90;;;;;;5060778;28;20421;-68
2021/12/17 10:43:26;;;;;;;2.42;1.20;;;7.60;99.90;;;;;;5060117;28;20036;-68
2021/12/17 10:46:02;;;;;;;4.95;1.73;;;7.60;99.90;;;;;;5060135;28;20032;-68
2021/12/17 10:51:45;;;;;;;4.82;1.42;;;7.60;99.90;;;;;;5059155;28;20647;-70
2021/12/17 10:54:19;;;;;;;3.95;1.75;;;7.50;99.90;;;;;;5059542;28;20349;-70
2021/12/17 10:56:55;;;;;;;4.20;1.30;;;7.50;99.90;;;;;;5059792;28;20083;-70
2021/12/17 10:59:30;;;;;;;3.17;0.70;;;7.60;99.90;;;;;;5059134;28;20059;-69
2021/12/17 11:02:04;;;;;;;3.47;0.88;;;7.60;99.90;;;;;;5059442;28;20425;-70
2021/12/17 11:04:36;;;;;;;1.90;0.90;;;7.50;99.90;;;;;;5058931;28;20028;-68
2021/12/17 11:07:06;;;;;;;2.13;1.30;;;7.50;99.90;;;;;;5058640;28;20025;-68
2021/12/17 11:09:55;;;;;;;2.70;1.48;;;7.50;99.90;;;;;;5058630;28;20028;-68
2021/12/17 11:12:29;;;;;;;3.05;1.52;;;7.60;99.90;;;;;;5058565;28;20095;-68
2021/12/17 11:15:14;;;;;;;1.95;1.20;;;7.60;99.90;;;;;;5058701;28;20048;-68
2021/12/17 11:17:43;;;;;;;3.38;1.00;;;7.60;99.90;;;;;;5059056;28;20017;-68
2021/12/17 11:20:15;;;;;;;3.90;2.03;;;7.60;99.90;;;;;;5058915;28;20029;-68
2021/12/17 11:22:44;;;;;;;3.67;1.40;;;7.60;99.90;;;;;;5059290;28;20032;-68
2021/12/17 11:25:12;;;;;;;3.42;1.60;;;7.70;99.90;;;;;;5059370;28;20430;-69
2021/12/17 11:27:41;;;;;;;3.60;1.70;;;7.70;99.90;;;;;;5059839;28;20024;-68
2021/12/17 11:30:17;;;;;;;4.70;2.70;;;7.70;99.90;;;;;;5059147;28;20025;-68
2021/12/17 11:32:47;;;;;;;2.90;1.25;;;7.70;99.90;;;;;;5059253;28;20013;-67
2021/12/17 11:35:16;;;;;;;2.22;1.00;;;7.70;99.90;;;;;;5058264;28;20033;-68
2021/12/17 11:37:46;;;;;;;1.30;0.70;;;7.80;99.90;;;;;;5058054;28;20025;-68
2021/12/17 11:40:41;;;;;;;1.88;0.85;;;7.80;99.90;;;;;;5059083;28;20040;-68
2021/12/17 11:43:50;;;;;;;3.70;1.90;;;7.80;99.90;;;;;;5058660;28;20417;-68
2021/12/17 11:46:26;;;;;;;1.65;0.70;;;7.90;99.90;;;;;;5058545;28;20413;-68
2021/12/17 11:49:13;;;;;;;2.88;1.13;;;7.90;99.90;;;;;;5058573;28;20420;-68
2021/12/17 11:51:41;;;;;;;2.38;1.02;;;7.90;99.90;;;;;;5057841;28;20040;-69
2021/12/17 11:54:18;;;;;;;2.90;1.85;;;7.90;99.90;;;;;;5057566;28;20348;-68
2021/12/17 11:56:55;;;;;;;4.97;2.83;;;7.90;99.90;;;;;;5057783;28;20025;-68
2021/12/17 11:59:27;;;;;;;2.97;1.60;;;7.90;99.90;;;;;;5057754;28;20112;-68
2021/12/17 12:02:19;;;;;;;4.30;1.92;;;7.90;99.90;;;;;;5057219;28;20021;-69
2021/12/17 12:05:01;;;;;;;2.00;1.17;;;7.90;99.90;;;;;;5058557;28;20079;-69
2021/12/17 12:07:29;;;;;;;3.65;1.50;;;7.90;99.90;;;;;;5058451;28;20052;-68
2021/12/17 12:10:00;;;;;;;3.88;2.05;;;7.90;99.90;;;;;;5058458;28;20091;-68
2021/12/17 12:12:50;;;;;;;2.63;1.63;;;7.90;99.90;;;;;;5058317;28;20021;-69
2021/12/17 12:18:11;;;;;;;2.67;1.30;;;7.90;99.90;;;;;;5058281;28;20025;-76
2021/12/17 12:20:46;;;;;;;2.67;1.50;;;7.80;99.90;;;;;;5058141;28;20029;-76
2021/12/17 12:23:30;;;;;;;2.65;1.50;;;7.90;99.90;;;;;;5056719;28;20028;-76
2021/12/17 12:26:05;;;;;;;4.25;2.20;;;7.80;99.90;;;;;;5057442;28;20021;-69
2021/12/17 12:28:47;;;;;;;4.20;1.80;;;7.80;99.90;;;;;;5057490;28;20495;-69
2021/12/17 12:31:19;;;;;;;3.67;1.67;;;7.90;99.90;;;;;;5055902;28;20033;-69
2021/12/17 12:34:10;;;;;;;11.10;5.13;;;7.80;99.90;;;;;;5057856;28;20025;-69
2021/12/17 12:37:05;;;;;;;10.63;3.90;;;7.80;99.90;;;;;;5057603;28;20017;-69
2021/12/17 12:39:54;;;;;;;4.25;2.05;;;7.80;99.90;;;;;;5057168;28;20017;-69
2021/12/17 12:42:37;;;;;;;5.60;2.78;;;7.80;99.90;;;;;;5057717;28;20045;-69
2021/12/17 12:45:08;;;;;;;6.68;3.25;;;7.80;99.90;;;;;;5057112;28;20143;-69
2021/12/17 12:47:41;;;;;;;6.10;3.42;;;7.80;99.90;;;;;;5057972;28;20033;-68
2021/12/17 12:50:12;;;;;;;7.63;3.75;;;7.80;99.90;;;;;;5057663;28;20032;-69
2021/12/17 12:52:52;;;;;;;6.55;3.30;;;7.80;99.90;;;;;;5057667;28;20029;-69
2021/12/17 12:55:20;;;;;;;6.90;3.92;;;7.80;99.90;;;;;;5018174;28;20030;-69
2021/12/17 12:57:51;;;;;;;9.38;3.80;;;7.80;99.90;;;;;;5018524;28;20064;-69
2021/12/17 13:00:23;;;;;;;8.23;4.20;;;7.80;99.90;;;;;;5017921;28;20022;-68
2021/12/17 13:03:03;;;;;;;7.13;3.17;;;7.80;99.90;;;;;;5017983;28;20053;-68
2021/12/17 13:05:32;;;;;;;8.68;3.63;;;7.80;99.90;;;;;;5017580;28;20054;-69
2021/12/17 13:08:02;;;;;;;6.68;3.28;;;7.80;99.90;;;;;;5016043;28;20049;-69
2021/12/17 13:10:45;;;;;;;7.60;3.60;;;7.70;99.90;;;;;;5017084;28;20022;-69
2021/12/17 13:13:29;;;;;;;9.77;4.13;;;7.80;99.90;;;;;;5016593;28;20022;-69
2021/12/17 13:16:11;;;;;;;10.88;4.95;;;7.70;99.90;;;;;;5016841;28;20030;-69
2021/12/17 13:24:36;;;;;;;7.95;3.78;;;7.70;99.90;;;;;;5004931;28;20042;-68
2021/12/17 13:27:12;;;;;;;15.45;6.93;;;7.70;99.90;;;;;;5016998;28;20021;-74
2021/12/17 13:29:43;;;;;;;11.23;5.88;;;7.70;99.90;;;;;;5017489;28;20121;-71
2021/12/17 13:32:18;;;;;;;12.77;4.97;;;7.70;99.90;;;;;;5018090;28;20464;-71
2021/12/17 13:34:49;;;;;;;12.35;5.00;;;7.70;99.90;;;;;;5018298;28;20072;-71
2021/12/17 13:37:25;;;;;;;10.85;4.97;;;7.70;99.90;;;;;;5018347;28;20425;-71
2021/12/17 13:39:56;;;;;;;;;;;7.70;99.90;;;;;;5017951;28;20022;-71
2021/12/17 13:42:29;;;;;;;10.20;4.40;;;7.70;99.90;;;;;;5018057;28;19909;-71
2021/12/17 13:45:10;;;;;;;8.95;4.57;;;7.70;99.90;;;;;;5017588;28;20030;-71
2021/12/17 13:47:42;;;;;;;9.10;4.40;;;7.70;99.90;;;;;;5018034;28;20026;-71
2021/12/17 13:50:28;;;;;;;10.40;4.60;;;7.70;99.90;;;;;;5016510;28;20311;-71
2021/12/17 13:52:59;;;;;;;10.30;5.20;;;7.70;99.90;;;;;;5018965;28;20105;-69
2021/12/17 13:55:31;;;;;;;10.13;4.55;;;7.70;99.90;;;;;;5056087;28;20029;-70
2021/12/17 13:58:00;;;;;;;8.98;4.50;;;7.70;99.90;;;;;;5056595;28;20017;-70
2021/12/17 14:00:34;;;;;;;8.38;3.90;;;7.70;99.90;;;;;;5054963;28;20025;-70
2021/12/17 14:03:03;;;;;;;17.88;7.03;;;7.70;99.90;;;;;;5056744;28;20363;-71
2021/12/17 14:05:40;;;;;;;12.88;4.28;;;7.70;99.90;;;;;;5056020;28;20059;-70
2021/12/17 14:08:15;;;;;;;9.43;4.43;;;7.70;99.90;;;;;;5056222;28;20371;-70
2021/12/17 14:10:44;;;;;;;9.82;4.28;;;7.70;99.90;;;;;;5054753;28;20025;-70
2021/12/17 14:13:22;;;;;;;10.13;4.13;;;7.70;99.90;;;;;;5056789;28;20025;-70
2021/12/17 14:15:51;;;;;;;9.52;3.97;;;7.70;99.90;;;;;;5056698;28;20032;-70
2021/12/17 14:18:28;;;;;;;10.35;4.50;;;7.70;99.90;;;;;;5057056;28;20408;-70
2021/12/17 14:21:01;;;;;;;7.93;3.75;;;7.70;99.90;;;;;;5056817;28;20318;-71
2021/12/17 14:23:30;;;;;;;10.00;3.90;;;7.70;99.90;;;;;;5057077;28;20040;-70
2021/12/17 14:26:06;;;;;;;13.73;4.40;;;7.70;99.90;;;;;;5058305;28;20112;-70
2021/12/17 14:28:37;;;;;;;9.88;4.30;;;7.70;99.90;;;;;;5059373;28;20029;-70
2021/12/17 14:31:14;;;;;;;11.98;4.13;;;7.70;99.90;;;;;;5060302;28;20056;-70
2021/12/17 14:33:57;;;;;;;8.20;4.25;;;7.70;99.90;;;;;;5059909;28;20096;-70
2021/12/17 14:36:41;;;;;;;10.43;4.75;;;7.70;99.90;;;;;;5059371;28;20429;-69
2021/12/17 14:39:18;;;;;;;11.25;3.95;;;7.70;99.90;;;;;;5059164;28;20025;-69
2021/12/17 14:41:57;;;;;;;9.70;3.75;;;7.60;99.90;;;;;;5059591;28;20029;-69
2021/12/17 15:00:46;;;;;;;9.48;4.40;;;7.40;99.90;;;;;;5060177;28;20045;-70
2021/12/17 15:03:26;;;;;;;10.00;4.60;;;7.30;99.90;;;;;;5060439;28;20104;-70
2021/12/17 15:05:58;;;;;;;7.80;4.00;;;7.30;99.90;;;;;;5059758;28;20029;-71
2021/12/17 15:08:27;;;;;;;11.40;4.32;;;7.30;99.90;;;;;;5059559;28;20033;-70
2021/12/17 15:10:55;;;;;;;10.63;4.53;;;7.30;99.90;;;;;;5058420;28;20056;-70
2021/12/17 15:13:24;;;;;;;10.00;4.65;;;7.20;99.90;;;;;;5059544;28;20022;-70
2021/12/17 15:15:52;;;;;;;9.77;4.10;;;7.20;99.90;;;;;;5059183;28;20078;-70
2021/12/17 15:18:21;;;;;;;7.95;4.40;;;7.30;99.90;;;;;;5057589;28;20155;-70
2021/12/17 15:20:50;;;;;;;10.18;4.55;;;7.20;99.90;;;;;;5058125;28;20143;-70
2021/12/17 15:23:19;;;;;;;10.85;5.22;;;7.20;99.90;;;;;;5057278;28;20017;-69
2021/12/17 15:25:50;;;;;;;15.68;7.65;;;7.20;99.90;;;;;;5058760;28;20255;-70
2021/12/17 15:28:22;;;;;;;14.27;6.53;;;7.20;99.90;;;;;;5058280;28;20024;-69
2021/12/17 15:30:53;;;;;;;10.95;4.97;;;7.20;99.90;;;;;;5057213;28;20046;-70
2021/12/17 15:33:20;;;;;;;13.63;6.03;;;7.20;99.90;;;;;;5058339;28;20020;-70
2021/12/17 15:35:49;;;;;;;12.30;5.78;;;7.20;99.90;;;;;;5058616;28;20047;-70
2021/12/17 15:38:18;;;;;;;9.95;5.85;;;7.20;99.90;;;;;;5059643;28;20025;-70
2021/12/17 15:40:47;;;;;;;13.32;7.05;;;7.20;99.90;;;;;;5059662;28;20029;-70
2021/12/17 15:43:16;;;;;;;11.15;5.07;;;7.10;99.90;;;;;;5059103;28;20025;-69
2021/12/17 15:45:47;;;;;;;9.20;4.95;;;7.10;99.90;;;;;;5059019;28;20424;-69
2021/12/17 15:48:17;;;;;;;10.65;5.40;;;7.10;99.90;;;;;;5059078;28;20310;-69
2021/12/17 15:50:45;;;;;;;11.82;5.00;;;7.10;99.90;;;;;;5058832;28;20372;-69
2021/12/17 15:53:12;;;;;;;9.30;4.95;;;7.00;99.90;;;;;;5058846;28;20056;-70
2021/12/17 15:55:43;;;;;;;11.02;4.80;;;7.00;99.90;;;;;;5058612;28;20060;-70
2021/12/17 15:58:12;;;;;;;9.82;5.30;;;7.00;99.90;;;;;;5058619;28;20104;-70
2021/12/17 16:00:41;;;;;;;15.98;5.93;;;6.90;99.90;;;;;;5057839;28;20027;-70
2021/12/17 16:03:11;;;;;;;12.10;5.90;;;6.90;99.90;;;;;;5057814;28;20100;-70
2021/12/17 16:05:39;;;;;;;13.48;5.75;;;6.90;99.90;;;;;;5058295;28;20029;-70
2021/12/17 16:08:07;;;;;;;10.20;5.47;;;6.90;99.90;;;;;;5057729;28;20398;-73
2021/12/17 16:20:59;;;;;;;11.80;6.15;;;6.90;99.90;;;;;;5058348;28;20364;-85
2021/12/17 16:21:42;;;;;;;12.70;5.53;;;6.90;99.90;;;;;;5058035;28;20087;-72
2021/12/17 16:24:11;;;;;;;14.60;7.22;;;6.90;99.90;;;;;;5058195;28;20024;-73
2021/12/17 16:26:38;;;;;;;12.70;5.93;;;6.90;99.90;;;;;;5058213;28;20013;-74
2021/12/17 16:29:13;;;;;;;9.30;5.38;;;6.80;99.90;;;;;;5058588;28;20320;-72